EJA303 KFYV-KAPC
Flight info
| Callsign | EJA303 |
|---|---|
| Flight time | 3h 34m |
| Altitude | 36000 |
| Route | VEGUC Q128 FLOOD J28 HBU HARPL REANA GRAFT |
| Aircraft | C700/M-V/N |
Departure
| Time | 2026-05-05 15:28 |
|---|---|
| Airport | Drake Field (KFYV) |
Arrival
| Time | 2026-05-05 19:02 |
|---|---|
| Airport | Napa County Airport (KAPC) |
| Time | Latitude | Longitude | Altitude | Speed | Heading |
|---|---|---|---|---|---|
| 2026-05-05 15:18 | 36.00464 | -94.17144 | 1246 ft | 0 kts | 255° |
| 2026-05-05 15:20 | 36.00466 | -94.17148 | 1246 ft | 1 kts | 295° |
| 2026-05-05 15:20 | 36.00473 | -94.17149 | 1260 ft | 0 kts | 352° |
| 2026-05-05 15:24 | 36.00478 | -94.17150 | 1246 ft | 5 kts | 352° |
| 2026-05-05 15:24 | 36.00552 | -94.17156 | 1247 ft | 14 kts | 355° |
| 2026-05-05 15:24 | 36.00655 | -94.17179 | 1254 ft | 15 kts | 348° |
| 2026-05-05 15:25 | 36.00762 | -94.17199 | 1248 ft | 16 kts | 353° |
| 2026-05-05 15:25 | 36.00870 | -94.17213 | 1249 ft | 16 kts | 353° |
| 2026-05-05 15:25 | 36.00981 | -94.17230 | 1250 ft | 16 kts | 353° |
| 2026-05-05 15:25 | 36.01093 | -94.17254 | 1251 ft | 16 kts | 348° |
| 2026-05-05 15:26 | 36.01205 | -94.17281 | 1258 ft | 17 kts | 348° |
| 2026-05-05 15:26 | 36.01272 | -94.17296 | 1257 ft | 0 kts | 0° |
| 2026-05-05 15:26 | 36.01273 | -94.17296 | 1259 ft | 1 kts | 0° |
| 2026-05-05 15:27 | 36.01301 | -94.17275 | 1254 ft | 9 kts | 69° |
| 2026-05-05 15:27 | 36.01288 | -94.17195 | 1257 ft | 11 kts | 162° |
| 2026-05-05 15:27 | 36.01179 | -94.17167 | 1259 ft | 35 kts | 169° |
| 2026-05-05 15:27 | 36.00676 | -94.17046 | 1248 ft | 111 kts | 169° |
| 2026-05-05 15:28 | 35.99709 | -94.16815 | 1360 ft | 162 kts | 170° |
| 2026-05-05 15:28 | 35.98577 | -94.16639 | 2223 ft | 171 kts | 175° |
| 2026-05-05 15:28 | 35.97352 | -94.16656 | 3243 ft | 185 kts | 191° |
| 2026-05-05 15:28 | 35.96096 | -94.17420 | 3937 ft | 221 kts | 222° |
| 2026-05-05 15:29 | 35.95132 | -94.18969 | 4963 ft | 245 kts | 241° |
| 2026-05-05 15:29 | 35.94806 | -94.21178 | 5594 ft | 281 kts | 273° |
| 2026-05-05 15:29 | 35.95508 | -94.23399 | 5991 ft | 283 kts | 301° |
| 2026-05-05 15:29 | 35.96780 | -94.25243 | 5991 ft | 278 kts | 309° |
| 2026-05-05 15:30 | 35.98047 | -94.26977 | 6085 ft | 261 kts | 304° |
| 2026-05-05 15:30 | 35.99028 | -94.28742 | 6650 ft | 248 kts | 296° |
| 2026-05-05 15:30 | 35.99889 | -94.30640 | 7251 ft | 265 kts | 295° |
| 2026-05-05 15:30 | 36.00835 | -94.32648 | 7872 ft | 274 kts | 296° |
| 2026-05-05 15:31 | 36.01836 | -94.34653 | 8492 ft | 274 kts | 296° |
| 2026-05-05 15:31 | 36.02831 | -94.36653 | 9115 ft | 273 kts | 295° |
| 2026-05-05 15:31 | 36.03807 | -94.38659 | 9738 ft | 272 kts | 295° |
| 2026-05-05 15:31 | 36.04786 | -94.40672 | 10318 ft | 276 kts | 295° |
| 2026-05-05 15:32 | 36.05802 | -94.42799 | 10928 ft | 298 kts | 295° |
| 2026-05-05 15:32 | 36.06867 | -94.45046 | 11551 ft | 303 kts | 295° |
| 2026-05-05 15:32 | 36.07928 | -94.47287 | 12167 ft | 302 kts | 295° |
| 2026-05-05 15:32 | 36.08992 | -94.49531 | 12795 ft | 302 kts | 295° |
| 2026-05-05 15:33 | 36.10056 | -94.51778 | 13435 ft | 304 kts | 296° |
| 2026-05-05 15:33 | 36.11127 | -94.54044 | 14026 ft | 306 kts | 296° |
| 2026-05-05 15:33 | 36.12192 | -94.56299 | 14609 ft | 308 kts | 296° |
| 2026-05-05 15:33 | 36.13274 | -94.58594 | 15209 ft | 309 kts | 296° |
| 2026-05-05 15:34 | 36.14359 | -94.60897 | 15825 ft | 309 kts | 296° |
| 2026-05-05 15:34 | 36.15442 | -94.63196 | 16446 ft | 310 kts | 296° |
| 2026-05-05 15:34 | 36.16533 | -94.65514 | 17102 ft | 313 kts | 296° |
| 2026-05-05 15:34 | 36.17636 | -94.67863 | 17756 ft | 316 kts | 296° |
| 2026-05-05 15:35 | 36.18745 | -94.70225 | 18353 ft | 318 kts | 296° |
| 2026-05-05 15:35 | 36.19842 | -94.72564 | 18919 ft | 318 kts | 296° |
| 2026-05-05 15:35 | 36.20954 | -94.74936 | 19492 ft | 318 kts | 296° |
| 2026-05-05 15:35 | 36.22078 | -94.77299 | 20086 ft | 320 kts | 298° |
| 2026-05-05 15:36 | 36.23417 | -94.79527 | 20688 ft | 326 kts | 304° |
| 2026-05-05 15:36 | 36.24814 | -94.81749 | 21311 ft | 326 kts | 300° |
| 2026-05-05 15:36 | 36.26007 | -94.84136 | 21950 ft | 326 kts | 294° |
| 2026-05-05 15:36 | 36.27083 | -94.86611 | 22598 ft | 328 kts | 294° |
| 2026-05-05 15:37 | 36.28241 | -94.89078 | 23255 ft | 332 kts | 296° |
| 2026-05-05 15:37 | 36.29461 | -94.91521 | 23819 ft | 334 kts | 296° |
| 2026-05-05 15:37 | 36.30670 | -94.93991 | 24388 ft | 336 kts | 295° |
| 2026-05-05 15:37 | 36.31858 | -94.96493 | 24972 ft | 338 kts | 295° |
| 2026-05-05 15:38 | 36.33054 | -94.99004 | 25557 ft | 338 kts | 295° |
| 2026-05-05 15:38 | 36.34260 | -95.01507 | 26155 ft | 338 kts | 295° |
| 2026-05-05 15:38 | 36.35470 | -95.04011 | 26771 ft | 339 kts | 295° |
| 2026-05-05 15:38 | 36.36679 | -95.06536 | 27404 ft | 342 kts | 295° |
| 2026-05-05 15:39 | 36.37896 | -95.09083 | 28047 ft | 344 kts | 295° |
| 2026-05-05 15:39 | 36.39110 | -95.11618 | 28698 ft | 346 kts | 295° |
| 2026-05-05 15:39 | 36.40347 | -95.14199 | 29412 ft | 349 kts | 295° |
| 2026-05-05 15:39 | 36.41592 | -95.16803 | 30062 ft | 352 kts | 295° |
| 2026-05-05 15:40 | 36.42844 | -95.19425 | 30650 ft | 354 kts | 295° |
| 2026-05-05 15:40 | 36.44101 | -95.22055 | 31261 ft | 354 kts | 294° |
| 2026-05-05 15:40 | 36.45353 | -95.24678 | 31873 ft | 351 kts | 294° |
| 2026-05-05 15:40 | 36.46594 | -95.27279 | 32500 ft | 349 kts | 294° |
| 2026-05-05 15:41 | 36.47822 | -95.29858 | 33141 ft | 347 kts | 294° |
| 2026-05-05 15:41 | 36.49052 | -95.32445 | 33795 ft | 345 kts | 294° |
| 2026-05-05 15:41 | 36.50273 | -95.35011 | 34370 ft | 344 kts | 293° |
| 2026-05-05 15:41 | 36.51488 | -95.37567 | 34955 ft | 341 kts | 294° |
| 2026-05-05 15:42 | 36.52690 | -95.40098 | 35540 ft | 338 kts | 294° |
| 2026-05-05 15:42 | 36.53889 | -95.42631 | 35743 ft | 346 kts | 294° |
| 2026-05-05 15:42 | 36.55127 | -95.45253 | 35761 ft | 356 kts | 294° |
| 2026-05-05 15:42 | 36.56404 | -95.47949 | 35770 ft | 367 kts | 294° |
| 2026-05-05 15:43 | 36.57704 | -95.50689 | 35768 ft | 377 kts | 294° |
| 2026-05-05 15:43 | 36.60384 | -95.56343 | 35767 ft | 378 kts | 294° |
| 2026-05-05 15:44 | 36.63027 | -95.61946 | 35768 ft | 374 kts | 294° |
| 2026-05-05 15:44 | 36.65671 | -95.67561 | 35795 ft | 377 kts | 294° |
| 2026-05-05 15:45 | 36.68319 | -95.73187 | 35827 ft | 380 kts | 294° |
| 2026-05-05 15:45 | 36.70996 | -95.78891 | 35839 ft | 382 kts | 294° |
| 2026-05-05 15:46 | 36.73672 | -95.84594 | 35860 ft | 379 kts | 294° |
| 2026-05-05 15:46 | 36.76323 | -95.90262 | 35858 ft | 377 kts | 294° |
| 2026-05-05 15:47 | 36.78961 | -95.95909 | 35867 ft | 377 kts | 294° |
| 2026-05-05 15:47 | 36.81300 | -96.01731 | 35865 ft | 374 kts | 287° |
| 2026-05-05 15:48 | 36.82843 | -96.07910 | 35873 ft | 372 kts | 281° |
| 2026-05-05 15:48 | 36.84152 | -96.14138 | 35854 ft | 374 kts | 282° |
| 2026-05-05 15:49 | 36.85475 | -96.20474 | 35845 ft | 375 kts | 281° |
| 2026-05-05 15:49 | 36.86776 | -96.26730 | 35834 ft | 375 kts | 281° |
| 2026-05-05 15:50 | 36.88085 | -96.33034 | 35833 ft | 374 kts | 282° |
| 2026-05-05 15:50 | 36.89388 | -96.39332 | 35821 ft | 373 kts | 281° |
| 2026-05-05 15:51 | 36.90683 | -96.45605 | 35813 ft | 372 kts | 281° |
| 2026-05-05 15:51 | 36.91963 | -96.51835 | 35807 ft | 373 kts | 281° |
| 2026-05-05 15:52 | 36.93260 | -96.58152 | 35806 ft | 375 kts | 281° |
| 2026-05-05 15:52 | 36.94557 | -96.64493 | 35808 ft | 377 kts | 281° |
| 2026-05-05 15:53 | 36.95851 | -96.70835 | 35821 ft | 376 kts | 281° |
| 2026-05-05 15:53 | 36.97135 | -96.77150 | 35829 ft | 374 kts | 281° |
| 2026-05-05 15:54 | 36.98409 | -96.83434 | 35837 ft | 372 kts | 281° |
| 2026-05-05 15:54 | 36.99679 | -96.89719 | 35850 ft | 374 kts | 281° |
| 2026-05-05 15:55 | 37.00948 | -96.96014 | 35863 ft | 377 kts | 281° |
| 2026-05-05 15:55 | 37.02229 | -97.02387 | 35871 ft | 376 kts | 281° |
| 2026-05-05 15:56 | 37.03502 | -97.08741 | 35872 ft | 375 kts | 280° |
| 2026-05-05 15:56 | 37.04552 | -97.13996 | 35868 ft | 373 kts | 280° |
| 2026-05-05 15:57 | 37.05806 | -97.20289 | 35864 ft | 372 kts | 280° |
| 2026-05-05 15:57 | 37.07059 | -97.26601 | 35862 ft | 375 kts | 280° |
| 2026-05-05 15:58 | 37.08317 | -97.32948 | 35856 ft | 377 kts | 280° |
| 2026-05-05 15:58 | 37.09576 | -97.39326 | 35850 ft | 377 kts | 280° |
| 2026-05-05 15:59 | 37.10829 | -97.45684 | 35850 ft | 375 kts | 280° |
| 2026-05-05 15:59 | 37.12064 | -97.51978 | 35846 ft | 373 kts | 280° |
| 2026-05-05 16:00 | 37.13296 | -97.58275 | 35846 ft | 372 kts | 280° |
| 2026-05-05 16:00 | 37.14528 | -97.64593 | 35849 ft | 374 kts | 280° |
| 2026-05-05 16:01 | 37.15764 | -97.70947 | 35860 ft | 375 kts | 280° |
| 2026-05-05 16:01 | 37.16999 | -97.77314 | 35866 ft | 377 kts | 280° |
| 2026-05-05 16:02 | 37.18226 | -97.83661 | 35876 ft | 376 kts | 280° |
| 2026-05-05 16:02 | 37.19451 | -97.90021 | 35878 ft | 374 kts | 279° |
| 2026-05-05 16:03 | 37.20669 | -97.96357 | 35880 ft | 372 kts | 279° |
| 2026-05-05 16:03 | 37.21878 | -98.02675 | 35883 ft | 372 kts | 279° |
| 2026-05-05 16:04 | 37.23077 | -98.08951 | 35884 ft | 372 kts | 279° |
| 2026-05-05 16:04 | 37.24280 | -98.15276 | 35883 ft | 373 kts | 279° |
| 2026-05-05 16:05 | 37.25484 | -98.21618 | 35882 ft | 373 kts | 279° |
| 2026-05-05 16:05 | 37.26685 | -98.27972 | 35882 ft | 374 kts | 279° |
| 2026-05-05 16:06 | 37.27885 | -98.34330 | 35879 ft | 374 kts | 279° |
| 2026-05-05 16:06 | 37.29084 | -98.40714 | 35873 ft | 376 kts | 279° |
| 2026-05-05 16:07 | 37.30277 | -98.47080 | 35875 ft | 377 kts | 279° |
| 2026-05-05 16:07 | 37.31476 | -98.53499 | 35887 ft | 377 kts | 279° |
| 2026-05-05 16:08 | 37.32670 | -98.59909 | 35887 ft | 375 kts | 279° |
| 2026-05-05 16:08 | 37.33853 | -98.66289 | 35890 ft | 374 kts | 279° |
| 2026-05-05 16:09 | 37.35022 | -98.72605 | 35879 ft | 373 kts | 279° |
| 2026-05-05 16:09 | 37.36199 | -98.78995 | 35891 ft | 377 kts | 279° |
| 2026-05-05 16:10 | 37.37384 | -98.85437 | 35897 ft | 379 kts | 279° |
| 2026-05-05 16:10 | 37.38564 | -98.91880 | 35906 ft | 377 kts | 278° |
| 2026-05-05 16:11 | 37.39726 | -98.98235 | 35905 ft | 369 kts | 278° |
| 2026-05-05 16:12 | 37.42025 | -99.10902 | 35907 ft | 376 kts | 278° |
| 2026-05-05 16:13 | 37.44927 | -99.26984 | 35906 ft | 375 kts | 278° |
| 2026-05-05 16:13 | 37.46073 | -99.33378 | 35904 ft | 374 kts | 278° |
| 2026-05-05 16:14 | 37.48358 | -99.46184 | 35913 ft | 375 kts | 278° |
| 2026-05-05 16:15 | 37.50640 | -99.59058 | 35913 ft | 378 kts | 278° |
| 2026-05-05 16:16 | 37.52915 | -99.71976 | 35934 ft | 378 kts | 278° |
| 2026-05-05 16:17 | 37.54608 | -99.81655 | 35990 ft | 376 kts | 277° |
| 2026-05-05 16:18 | 37.56291 | -99.91321 | 35953 ft | 377 kts | 277° |
| 2026-05-05 16:19 | 37.57971 | -100.01022 | 35961 ft | 378 kts | 277° |
| 2026-05-05 16:19 | 37.59650 | -100.10766 | 35960 ft | 379 kts | 277° |
| 2026-05-05 16:20 | 37.61872 | -100.23734 | 35947 ft | 379 kts | 277° |
| 2026-05-05 16:22 | 37.64630 | -100.39969 | 35926 ft | 378 kts | 276° |
| 2026-05-05 16:23 | 37.66818 | -100.52954 | 35942 ft | 378 kts | 276° |
| 2026-05-05 16:23 | 37.68446 | -100.62670 | 35957 ft | 380 kts | 276° |
| 2026-05-05 16:24 | 37.69539 | -100.69224 | 35964 ft | 382 kts | 276° |
| 2026-05-05 16:25 | 37.71181 | -100.79106 | 35970 ft | 382 kts | 276° |
| 2026-05-05 16:25 | 37.72795 | -100.88887 | 35953 ft | 377 kts | 276° |
| 2026-05-05 16:26 | 37.74937 | -101.01942 | 35943 ft | 382 kts | 276° |
| 2026-05-05 16:27 | 37.76010 | -101.08523 | 35932 ft | 382 kts | 276° |
| 2026-05-05 16:27 | 37.77075 | -101.15066 | 35925 ft | 381 kts | 276° |
| 2026-05-05 16:28 | 37.78136 | -101.21620 | 35924 ft | 380 kts | 276° |
| 2026-05-05 16:28 | 37.79191 | -101.28157 | 35966 ft | 378 kts | 276° |
| 2026-05-05 16:29 | 37.80239 | -101.34681 | 35974 ft | 379 kts | 276° |
| 2026-05-05 16:29 | 37.81288 | -101.41224 | 35973 ft | 380 kts | 276° |
| 2026-05-05 16:30 | 37.82334 | -101.47776 | 35966 ft | 380 kts | 275° |
| 2026-05-05 16:30 | 37.83370 | -101.54296 | 35959 ft | 380 kts | 275° |
| 2026-05-05 16:31 | 37.84410 | -101.60864 | 35962 ft | 380 kts | 275° |
| 2026-05-05 16:31 | 37.85444 | -101.67418 | 35961 ft | 380 kts | 275° |
| 2026-05-05 16:32 | 37.86478 | -101.73999 | 35961 ft | 380 kts | 275° |
| 2026-05-05 16:32 | 37.87506 | -101.80561 | 35955 ft | 381 kts | 275° |
| 2026-05-05 16:33 | 37.88533 | -101.87149 | 35948 ft | 381 kts | 275° |
| 2026-05-05 16:33 | 37.89551 | -101.93698 | 35943 ft | 382 kts | 275° |
| 2026-05-05 16:34 | 37.90573 | -102.00300 | 35941 ft | 382 kts | 275° |
| 2026-05-05 16:34 | 37.91594 | -102.06922 | 35939 ft | 383 kts | 275° |
| 2026-05-05 16:35 | 37.92612 | -102.13549 | 35940 ft | 384 kts | 275° |
| 2026-05-05 16:35 | 37.93628 | -102.20193 | 35938 ft | 384 kts | 275° |
| 2026-05-05 16:36 | 37.94639 | -102.26825 | 35931 ft | 382 kts | 275° |
| 2026-05-05 16:36 | 37.95640 | -102.33423 | 35935 ft | 380 kts | 275° |
| 2026-05-05 16:37 | 37.96634 | -102.39993 | 35932 ft | 379 kts | 275° |
| 2026-05-05 16:37 | 37.97622 | -102.46559 | 35998 ft | 380 kts | 274° |
| 2026-05-05 16:38 | 37.98604 | -102.53110 | 36031 ft | 382 kts | 275° |
| 2026-05-05 16:38 | 37.99594 | -102.59726 | 36039 ft | 380 kts | 274° |
| 2026-05-05 16:39 | 38.00570 | -102.66287 | 36041 ft | 377 kts | 274° |
| 2026-05-05 16:39 | 38.01538 | -102.72831 | 36041 ft | 378 kts | 274° |
| 2026-05-05 16:40 | 38.02509 | -102.79406 | 36034 ft | 381 kts | 274° |
| 2026-05-05 16:40 | 38.03485 | -102.86044 | 36023 ft | 382 kts | 274° |
| 2026-05-05 16:41 | 38.04455 | -102.92662 | 36000 ft | 380 kts | 274° |
| 2026-05-05 16:41 | 38.05411 | -102.99226 | 35983 ft | 378 kts | 274° |
| 2026-05-05 16:42 | 38.06363 | -103.05784 | 35959 ft | 378 kts | 274° |
| 2026-05-05 16:42 | 38.07308 | -103.12324 | 35939 ft | 380 kts | 274° |
| 2026-05-05 16:43 | 38.08264 | -103.18961 | 35966 ft | 382 kts | 274° |
| 2026-05-05 16:43 | 38.09057 | -103.24480 | 35980 ft | 381 kts | 274° |
| 2026-05-05 16:44 | 38.10001 | -103.31086 | 36002 ft | 379 kts | 274° |
| 2026-05-05 16:44 | 38.10937 | -103.37664 | 36015 ft | 378 kts | 274° |
| 2026-05-05 16:45 | 38.11866 | -103.44220 | 36055 ft | 378 kts | 274° |
| 2026-05-05 16:45 | 38.12796 | -103.50813 | 36038 ft | 379 kts | 273° |
| 2026-05-05 16:46 | 38.13719 | -103.57379 | 36024 ft | 380 kts | 273° |
| 2026-05-05 16:46 | 38.14646 | -103.64002 | 36009 ft | 380 kts | 273° |
| 2026-05-05 16:47 | 38.15568 | -103.70621 | 35994 ft | 380 kts | 273° |
| 2026-05-05 16:47 | 38.16486 | -103.77234 | 35976 ft | 380 kts | 273° |
| 2026-05-05 16:48 | 38.17395 | -103.83814 | 35956 ft | 380 kts | 273° |
| 2026-05-05 16:48 | 38.18305 | -103.90431 | 35929 ft | 380 kts | 273° |
| 2026-05-05 16:49 | 38.19214 | -103.97062 | 35931 ft | 381 kts | 273° |
| 2026-05-05 16:49 | 38.20121 | -104.03714 | 35938 ft | 382 kts | 273° |
| 2026-05-05 16:50 | 38.21027 | -104.10385 | 35941 ft | 383 kts | 273° |
| 2026-05-05 16:50 | 38.21929 | -104.17057 | 35960 ft | 382 kts | 272° |
| 2026-05-05 16:51 | 38.22825 | -104.23716 | 35964 ft | 381 kts | 272° |
| 2026-05-05 16:51 | 38.23718 | -104.30394 | 35990 ft | 385 kts | 272° |
| 2026-05-05 16:52 | 38.24619 | -104.37138 | 36018 ft | 387 kts | 272° |
| 2026-05-05 16:52 | 38.25514 | -104.43866 | 36022 ft | 384 kts | 272° |
| 2026-05-05 16:53 | 38.26394 | -104.50538 | 36020 ft | 382 kts | 272° |
| 2026-05-05 16:53 | 38.27272 | -104.57217 | 36022 ft | 384 kts | 272° |
| 2026-05-05 16:54 | 38.28148 | -104.63899 | 36015 ft | 386 kts | 272° |
| 2026-05-05 16:54 | 38.29028 | -104.70649 | 35983 ft | 386 kts | 272° |
| 2026-05-05 16:55 | 38.29903 | -104.77384 | 35953 ft | 384 kts | 272° |
| 2026-05-05 16:55 | 38.30769 | -104.84091 | 35921 ft | 383 kts | 272° |
| 2026-05-05 16:56 | 38.31629 | -104.90779 | 35886 ft | 381 kts | 272° |
| 2026-05-05 16:56 | 38.32479 | -104.97439 | 35822 ft | 386 kts | 272° |
| 2026-05-05 16:57 | 38.33346 | -105.04234 | 35800 ft | 390 kts | 272° |
| 2026-05-05 16:57 | 38.34117 | -105.11046 | 35764 ft | 384 kts | 268° |
| 2026-05-05 16:58 | 38.34546 | -105.17781 | 35766 ft | 383 kts | 269° |
| 2026-05-05 16:58 | 38.34993 | -105.24526 | 35787 ft | 382 kts | 268° |
| 2026-05-05 16:59 | 38.35422 | -105.31296 | 35754 ft | 385 kts | 268° |
| 2026-05-05 16:59 | 38.35862 | -105.38142 | 35760 ft | 389 kts | 268° |
| 2026-05-05 17:00 | 38.36295 | -105.44984 | 35759 ft | 386 kts | 268° |
| 2026-05-05 17:00 | 38.36721 | -105.51778 | 35754 ft | 384 kts | 268° |
| 2026-05-05 17:01 | 38.37141 | -105.58565 | 35758 ft | 386 kts | 268° |
| 2026-05-05 17:01 | 38.37561 | -105.65402 | 35749 ft | 388 kts | 268° |
| 2026-05-05 17:02 | 38.37981 | -105.72299 | 35749 ft | 392 kts | 268° |
| 2026-05-05 17:02 | 38.38397 | -105.79192 | 35745 ft | 391 kts | 268° |
| 2026-05-05 17:03 | 38.38808 | -105.86068 | 35738 ft | 387 kts | 268° |
| 2026-05-05 17:03 | 38.39209 | -105.92908 | 35732 ft | 388 kts | 267° |
| 2026-05-05 17:04 | 38.39412 | -105.96358 | 35877 ft | 392 kts | 268° |
| 2026-05-05 17:04 | 38.39616 | -105.99852 | 35905 ft | 395 kts | 268° |
| 2026-05-05 17:04 | 38.40021 | -106.06801 | 35889 ft | 391 kts | 268° |
| 2026-05-05 17:05 | 38.40415 | -106.13683 | 35866 ft | 389 kts | 268° |
| 2026-05-05 17:05 | 38.40802 | -106.20545 | 35866 ft | 392 kts | 268° |
| 2026-05-05 17:06 | 38.41193 | -106.27489 | 35848 ft | 394 kts | 267° |
| 2026-05-05 17:06 | 38.41580 | -106.34438 | 35817 ft | 391 kts | 267° |
| 2026-05-05 17:07 | 38.41958 | -106.41367 | 35807 ft | 393 kts | 267° |
| 2026-05-05 17:07 | 38.42339 | -106.48336 | 35790 ft | 394 kts | 267° |
| 2026-05-05 17:08 | 38.42714 | -106.55338 | 35788 ft | 395 kts | 267° |
| 2026-05-05 17:08 | 38.43087 | -106.62315 | 35787 ft | 394 kts | 267° |
| 2026-05-05 17:09 | 38.43449 | -106.69248 | 35791 ft | 392 kts | 267° |
| 2026-05-05 17:09 | 38.43811 | -106.76222 | 35797 ft | 398 kts | 267° |
| 2026-05-05 17:10 | 38.44176 | -106.83324 | 35788 ft | 402 kts | 267° |
| 2026-05-05 17:10 | 38.44538 | -106.90385 | 35926 ft | 397 kts | 267° |
| 2026-05-05 17:11 | 38.44886 | -106.97393 | 35923 ft | 395 kts | 267° |
| 2026-05-05 17:11 | 38.45219 | -107.04411 | 35908 ft | 396 kts | 265° |
| 2026-05-05 17:12 | 38.45271 | -107.11424 | 35892 ft | 401 kts | 265° |
| 2026-05-05 17:12 | 38.45350 | -107.18568 | 35868 ft | 401 kts | 265° |
| 2026-05-05 17:13 | 38.45399 | -107.25674 | 35829 ft | 399 kts | 265° |
| 2026-05-05 17:13 | 38.45455 | -107.32746 | 35803 ft | 399 kts | 265° |
| 2026-05-05 17:14 | 38.45502 | -107.39838 | 35806 ft | 399 kts | 265° |
| 2026-05-05 17:14 | 38.45546 | -107.46953 | 35779 ft | 403 kts | 264° |
| 2026-05-05 17:15 | 38.45588 | -107.54080 | 35779 ft | 404 kts | 264° |
| 2026-05-05 17:15 | 38.45623 | -107.61234 | 35765 ft | 402 kts | 264° |
| 2026-05-05 17:16 | 38.45654 | -107.68376 | 35763 ft | 404 kts | 265° |
| 2026-05-05 17:16 | 38.45681 | -107.75583 | 35769 ft | 408 kts | 265° |
| 2026-05-05 17:17 | 38.45705 | -107.82832 | 35907 ft | 412 kts | 265° |
| 2026-05-05 17:17 | 38.45725 | -107.90123 | 35901 ft | 409 kts | 265° |
| 2026-05-05 17:18 | 38.45739 | -107.97356 | 35899 ft | 405 kts | 265° |
| 2026-05-05 17:18 | 38.45748 | -108.04556 | 35878 ft | 407 kts | 265° |
| 2026-05-05 17:19 | 38.45753 | -108.11803 | 35853 ft | 409 kts | 265° |
| 2026-05-05 17:19 | 38.45754 | -108.19085 | 35838 ft | 411 kts | 265° |
| 2026-05-05 17:20 | 38.45751 | -108.26333 | 35801 ft | 410 kts | 265° |
| 2026-05-05 17:20 | 38.45744 | -108.33610 | 35767 ft | 408 kts | 265° |
| 2026-05-05 17:21 | 38.45731 | -108.40831 | 35765 ft | 407 kts | 265° |
| 2026-05-05 17:22 | 38.45702 | -108.51764 | 35776 ft | 416 kts | 265° |
| 2026-05-05 17:22 | 38.45680 | -108.59157 | 35778 ft | 415 kts | 265° |
| 2026-05-05 17:23 | 38.45651 | -108.66446 | 35771 ft | 411 kts | 265° |
| 2026-05-05 17:23 | 38.45618 | -108.73718 | 35762 ft | 411 kts | 264° |
| 2026-05-05 17:24 | 38.45579 | -108.81041 | 35769 ft | 415 kts | 265° |
| 2026-05-05 17:24 | 38.45536 | -108.88476 | 35773 ft | 420 kts | 265° |
| 2026-05-05 17:25 | 38.45492 | -108.95889 | 35772 ft | 416 kts | 265° |
| 2026-05-05 17:25 | 38.45438 | -109.03240 | 35774 ft | 413 kts | 265° |
| 2026-05-05 17:26 | 38.45379 | -109.10712 | 35770 ft | 426 kts | 265° |
| 2026-05-05 17:26 | 38.45319 | -109.18310 | 35766 ft | 429 kts | 265° |
| 2026-05-05 17:27 | 38.45249 | -109.25910 | 35764 ft | 427 kts | 265° |
| 2026-05-05 17:27 | 38.45180 | -109.33438 | 35766 ft | 425 kts | 265° |
| 2026-05-05 17:28 | 38.45100 | -109.40973 | 35758 ft | 424 kts | 265° |
| 2026-05-05 17:28 | 38.45019 | -109.48510 | 35757 ft | 428 kts | 265° |
| 2026-05-05 17:29 | 38.44930 | -109.56179 | 35752 ft | 435 kts | 265° |
| 2026-05-05 17:29 | 38.44839 | -109.63873 | 35750 ft | 432 kts | 265° |
| 2026-05-05 17:30 | 38.44740 | -109.71477 | 35732 ft | 428 kts | 265° |
| 2026-05-05 17:30 | 38.44638 | -109.79090 | 35729 ft | 430 kts | 265° |
| 2026-05-05 17:31 | 38.44545 | -109.85479 | 35735 ft | 438 kts | 265° |
| 2026-05-05 17:31 | 38.44434 | -109.93296 | 35740 ft | 440 kts | 265° |
| 2026-05-05 17:32 | 38.44314 | -110.01087 | 35738 ft | 438 kts | 265° |
| 2026-05-05 17:32 | 38.44192 | -110.08848 | 35735 ft | 436 kts | 265° |
| 2026-05-05 17:33 | 38.44251 | -110.16609 | 35731 ft | 439 kts | 267° |
| 2026-05-05 17:33 | 38.44302 | -110.24410 | 35737 ft | 446 kts | 267° |
| 2026-05-05 17:34 | 38.44357 | -110.32320 | 35736 ft | 444 kts | 267° |
| 2026-05-05 17:34 | 38.44402 | -110.40172 | 35735 ft | 443 kts | 268° |
| 2026-05-05 17:35 | 38.44442 | -110.48084 | 35745 ft | 447 kts | 268° |
| 2026-05-05 17:35 | 38.44479 | -110.56076 | 35740 ft | 453 kts | 268° |
| 2026-05-05 17:36 | 38.44510 | -110.64068 | 35911 ft | 452 kts | 268° |
| 2026-05-05 17:36 | 38.44535 | -110.72054 | 35908 ft | 449 kts | 268° |
| 2026-05-05 17:37 | 38.44554 | -110.80009 | 35905 ft | 448 kts | 268° |
| 2026-05-05 17:37 | 38.44568 | -110.88040 | 35880 ft | 457 kts | 268° |
| 2026-05-05 17:38 | 38.44578 | -110.96165 | 35837 ft | 458 kts | 268° |
| 2026-05-05 17:38 | 38.44581 | -111.04195 | 35800 ft | 454 kts | 268° |
| 2026-05-05 17:39 | 38.44579 | -111.12236 | 35766 ft | 453 kts | 268° |
| 2026-05-05 17:39 | 38.44571 | -111.20331 | 35760 ft | 461 kts | 268° |
| 2026-05-05 17:40 | 38.44558 | -111.28549 | 35777 ft | 463 kts | 268° |
| 2026-05-05 17:40 | 38.44539 | -111.36736 | 35776 ft | 459 kts | 268° |
| 2026-05-05 17:41 | 38.44514 | -111.44800 | 35791 ft | 458 kts | 268° |
| 2026-05-05 17:41 | 38.44483 | -111.52949 | 35784 ft | 461 kts | 269° |
| 2026-05-05 17:42 | 38.44447 | -111.61175 | 35801 ft | 467 kts | 269° |
| 2026-05-05 17:42 | 38.44405 | -111.69467 | 35803 ft | 466 kts | 269° |
| 2026-05-05 17:43 | 38.44357 | -111.77712 | 35797 ft | 463 kts | 269° |
| 2026-05-05 17:43 | 38.44303 | -111.85935 | 35815 ft | 465 kts | 269° |
| 2026-05-05 17:44 | 38.44243 | -111.94217 | 35810 ft | 467 kts | 269° |
| 2026-05-05 17:44 | 38.44178 | -112.02478 | 35811 ft | 469 kts | 269° |
| 2026-05-05 17:45 | 38.44106 | -112.10804 | 35811 ft | 468 kts | 269° |
| 2026-05-05 17:45 | 38.44029 | -112.19124 | 35818 ft | 470 kts | 269° |
| 2026-05-05 17:46 | 38.43944 | -112.27473 | 35817 ft | 471 kts | 269° |
| 2026-05-05 17:46 | 38.43854 | -112.35848 | 35823 ft | 471 kts | 269° |
| 2026-05-05 17:47 | 38.43759 | -112.44140 | 35815 ft | 471 kts | 269° |
| 2026-05-05 17:47 | 38.43657 | -112.52533 | 35817 ft | 478 kts | 269° |
| 2026-05-05 17:48 | 38.43547 | -112.61082 | 35847 ft | 482 kts | 269° |
| 2026-05-05 17:48 | 38.43431 | -112.69607 | 35877 ft | 478 kts | 269° |
| 2026-05-05 17:49 | 38.43309 | -112.78062 | 35903 ft | 476 kts | 269° |
| 2026-05-05 17:49 | 38.43181 | -112.86588 | 35939 ft | 486 kts | 270° |
| 2026-05-05 17:50 | 38.43045 | -112.95183 | 35952 ft | 486 kts | 269° |
| 2026-05-05 17:50 | 38.42903 | -113.03780 | 35949 ft | 484 kts | 269° |
| 2026-05-05 17:51 | 38.42755 | -113.12354 | 35948 ft | 483 kts | 270° |
| 2026-05-05 17:51 | 38.42600 | -113.21034 | 35920 ft | 493 kts | 270° |
| 2026-05-05 17:52 | 38.42435 | -113.29769 | 35877 ft | 491 kts | 270° |
| 2026-05-05 17:52 | 38.42267 | -113.38469 | 35845 ft | 490 kts | 270° |
| 2026-05-05 17:53 | 38.42091 | -113.47146 | 35811 ft | 490 kts | 270° |
| 2026-05-05 17:53 | 38.41908 | -113.55838 | 35819 ft | 491 kts | 270° |
| 2026-05-05 17:54 | 38.41721 | -113.64513 | 35827 ft | 492 kts | 269° |
| 2026-05-05 17:54 | 38.41524 | -113.73242 | 35825 ft | 493 kts | 269° |
| 2026-05-05 17:55 | 38.41322 | -113.82005 | 35815 ft | 496 kts | 270° |
| 2026-05-05 17:55 | 38.41110 | -113.90836 | 35827 ft | 498 kts | 270° |
| 2026-05-05 17:56 | 38.40893 | -113.99646 | 35824 ft | 496 kts | 270° |
| 2026-05-05 17:56 | 38.40671 | -114.08352 | 35839 ft | 494 kts | 270° |
| 2026-05-05 17:57 | 38.40442 | -114.17181 | 35850 ft | 501 kts | 270° |
| 2026-05-05 17:57 | 38.40200 | -114.26093 | 35855 ft | 502 kts | 270° |
| 2026-05-05 17:58 | 38.40021 | -114.34952 | 35851 ft | 497 kts | 273° |
| 2026-05-05 17:58 | 38.40219 | -114.43718 | 35855 ft | 498 kts | 274° |
| 2026-05-05 17:59 | 38.40383 | -114.52591 | 35856 ft | 502 kts | 274° |
| 2026-05-05 17:59 | 38.40553 | -114.61516 | 35861 ft | 502 kts | 274° |
| 2026-05-05 18:00 | 38.40712 | -114.70348 | 35856 ft | 500 kts | 274° |
| 2026-05-05 18:00 | 38.40864 | -114.79203 | 35854 ft | 499 kts | 274° |
| 2026-05-05 18:01 | 38.41013 | -114.88088 | 35846 ft | 503 kts | 274° |
| 2026-05-05 18:01 | 38.41152 | -114.97029 | 35854 ft | 505 kts | 274° |
| 2026-05-05 18:02 | 38.41286 | -115.05976 | 35849 ft | 504 kts | 274° |
| 2026-05-05 18:02 | 38.41413 | -115.14845 | 35846 ft | 504 kts | 274° |
| 2026-05-05 18:03 | 38.41533 | -115.23776 | 35845 ft | 504 kts | 274° |
| 2026-05-05 18:03 | 38.41647 | -115.32718 | 35848 ft | 504 kts | 274° |
| 2026-05-05 18:04 | 38.41755 | -115.41706 | 35851 ft | 507 kts | 274° |
| 2026-05-05 18:04 | 38.41855 | -115.50669 | 35858 ft | 510 kts | 274° |
| 2026-05-05 18:05 | 38.41948 | -115.59708 | 35858 ft | 508 kts | 274° |
| 2026-05-05 18:05 | 38.42036 | -115.68702 | 35845 ft | 507 kts | 274° |
| 2026-05-05 18:06 | 38.42117 | -115.77747 | 35854 ft | 513 kts | 274° |
| 2026-05-05 18:06 | 38.42189 | -115.86856 | 35857 ft | 512 kts | 274° |
| 2026-05-05 18:07 | 38.42257 | -115.95922 | 35852 ft | 510 kts | 274° |
| 2026-05-05 18:07 | 38.42317 | -116.04983 | 35853 ft | 512 kts | 274° |
| 2026-05-05 18:08 | 38.42369 | -116.14035 | 35866 ft | 515 kts | 274° |
| 2026-05-05 18:08 | 38.42415 | -116.23190 | 35865 ft | 514 kts | 274° |
| 2026-05-05 18:09 | 38.42454 | -116.32294 | 35863 ft | 513 kts | 274° |
| 2026-05-05 18:09 | 38.42486 | -116.41349 | 35866 ft | 514 kts | 274° |
| 2026-05-05 18:10 | 38.42510 | -116.50486 | 35873 ft | 514 kts | 274° |
| 2026-05-05 18:10 | 38.42528 | -116.59612 | 35877 ft | 516 kts | 274° |
| 2026-05-05 18:11 | 38.42540 | -116.68817 | 35885 ft | 521 kts | 274° |
| 2026-05-05 18:11 | 38.42540 | -116.78030 | 35887 ft | 518 kts | 274° |
| 2026-05-05 18:12 | 38.42539 | -116.87210 | 35878 ft | 516 kts | 274° |
| 2026-05-05 18:12 | 38.42529 | -116.96354 | 35878 ft | 522 kts | 274° |
| 2026-05-05 18:13 | 38.42509 | -117.05638 | 35895 ft | 523 kts | 274° |
| 2026-05-05 18:13 | 38.42484 | -117.14895 | 35888 ft | 520 kts | 274° |
| 2026-05-05 18:14 | 38.42451 | -117.24126 | 35903 ft | 519 kts | 274° |
| 2026-05-05 18:14 | 38.42412 | -117.33311 | 35895 ft | 521 kts | 274° |
| 2026-05-05 18:15 | 38.42364 | -117.42572 | 35898 ft | 523 kts | 274° |
| 2026-05-05 18:15 | 38.42310 | -117.51870 | 35905 ft | 526 kts | 274° |
| 2026-05-05 18:16 | 38.42246 | -117.61198 | 35913 ft | 525 kts | 274° |
| 2026-05-05 18:16 | 38.42177 | -117.70481 | 35911 ft | 522 kts | 274° |
| 2026-05-05 18:17 | 38.42101 | -117.79750 | 35912 ft | 522 kts | 274° |
| 2026-05-05 18:17 | 38.42018 | -117.89037 | 35919 ft | 525 kts | 274° |
| 2026-05-05 18:18 | 38.41941 | -117.96788 | 35922 ft | 526 kts | 274° |
| 2026-05-05 18:18 | 38.41826 | -118.07604 | 35917 ft | 524 kts | 274° |
| 2026-05-05 18:19 | 38.41722 | -118.16893 | 35928 ft | 524 kts | 274° |
| 2026-05-05 18:19 | 38.41627 | -118.24682 | 35942 ft | 524 kts | 275° |
| 2026-05-05 18:20 | 38.41990 | -118.33851 | 35971 ft | 521 kts | 279° |
| 2026-05-05 18:20 | 38.42397 | -118.43096 | 35992 ft | 523 kts | 278° |
| 2026-05-05 18:21 | 38.42815 | -118.52377 | 36007 ft | 522 kts | 279° |
| 2026-05-05 18:21 | 38.43217 | -118.61612 | 36025 ft | 522 kts | 278° |
| 2026-05-05 18:22 | 38.43616 | -118.70876 | 35997 ft | 523 kts | 279° |
| 2026-05-05 18:22 | 38.43807 | -118.75450 | 35249 ft | 514 kts | 279° |
| 2026-05-05 18:22 | 38.44020 | -118.80018 | 34095 ft | 515 kts | 281° |
| 2026-05-05 18:22 | 38.44289 | -118.84539 | 33110 ft | 508 kts | 281° |
| 2026-05-05 18:23 | 38.44486 | -118.89021 | 32145 ft | 502 kts | 279° |
| 2026-05-05 18:23 | 38.44616 | -118.93443 | 31221 ft | 495 kts | 279° |
| 2026-05-05 18:23 | 38.44774 | -118.97799 | 30342 ft | 488 kts | 279° |
| 2026-05-05 18:23 | 38.44968 | -119.02029 | 29460 ft | 481 kts | 280° |
| 2026-05-05 18:24 | 38.45150 | -119.06249 | 28612 ft | 472 kts | 279° |
| 2026-05-05 18:24 | 38.45301 | -119.10404 | 27737 ft | 465 kts | 278° |
| 2026-05-05 18:24 | 38.45448 | -119.14493 | 26921 ft | 456 kts | 278° |
| 2026-05-05 18:24 | 38.45606 | -119.18496 | 26131 ft | 448 kts | 278° |
| 2026-05-05 18:25 | 38.45764 | -119.22438 | 25364 ft | 440 kts | 278° |
| 2026-05-05 18:25 | 38.45862 | -119.25012 | 24874 ft | 435 kts | 278° |
| 2026-05-05 18:25 | 38.46048 | -119.30117 | 23931 ft | 426 kts | 278° |
| 2026-05-05 18:25 | 38.46184 | -119.33816 | 23138 ft | 419 kts | 277° |
| 2026-05-05 18:26 | 38.46323 | -119.37499 | 22289 ft | 412 kts | 277° |
| 2026-05-05 18:26 | 38.46457 | -119.41133 | 21424 ft | 407 kts | 277° |
| 2026-05-05 18:26 | 38.46587 | -119.44719 | 20614 ft | 400 kts | 277° |
| 2026-05-05 18:26 | 38.46709 | -119.48245 | 19883 ft | 394 kts | 277° |
| 2026-05-05 18:27 | 38.46834 | -119.51720 | 19086 ft | 390 kts | 277° |
| 2026-05-05 18:27 | 38.46958 | -119.55161 | 18358 ft | 385 kts | 277° |
| 2026-05-05 18:27 | 38.47074 | -119.58541 | 17647 ft | 377 kts | 276° |
| 2026-05-05 18:27 | 38.47187 | -119.61881 | 16783 ft | 375 kts | 277° |
| 2026-05-05 18:28 | 38.47411 | -119.68316 | 16159 ft | 341 kts | 277° |
| 2026-05-05 18:28 | 38.47502 | -119.71215 | 16034 ft | 325 kts | 277° |
| 2026-05-05 18:28 | 38.47604 | -119.74105 | 15470 ft | 325 kts | 277° |
| 2026-05-05 18:29 | 38.47707 | -119.76973 | 15055 ft | 322 kts | 277° |
| 2026-05-05 18:29 | 38.47793 | -119.79825 | 14531 ft | 321 kts | 277° |
| 2026-05-05 18:29 | 38.47892 | -119.82652 | 14026 ft | 318 kts | 278° |
| 2026-05-05 18:29 | 38.47989 | -119.85468 | 13505 ft | 316 kts | 277° |
| 2026-05-05 18:30 | 38.47810 | -119.88275 | 13003 ft | 319 kts | 262° |
| 2026-05-05 18:30 | 38.47246 | -119.91006 | 12527 ft | 317 kts | 256° |
| 2026-05-05 18:30 | 38.46617 | -119.93689 | 12024 ft | 313 kts | 257° |
| 2026-05-05 18:30 | 38.46077 | -119.96361 | 11584 ft | 309 kts | 259° |
| 2026-05-05 18:31 | 38.45583 | -119.99012 | 11119 ft | 306 kts | 259° |
| 2026-05-05 18:31 | 38.45069 | -120.01629 | 10660 ft | 303 kts | 259° |
| 2026-05-05 18:31 | 38.44545 | -120.04193 | 10540 ft | 292 kts | 258° |
| 2026-05-05 18:31 | 38.44028 | -120.06733 | 10588 ft | 304 kts | 259° |
| 2026-05-05 18:32 | 38.43496 | -120.09447 | 10598 ft | 333 kts | 258° |
| 2026-05-05 18:32 | 38.42897 | -120.12440 | 10598 ft | 365 kts | 258° |
| 2026-05-05 18:32 | 38.42243 | -120.15671 | 10599 ft | 377 kts | 258° |
| 2026-05-05 18:32 | 38.41598 | -120.18847 | 10595 ft | 363 kts | 258° |
| 2026-05-05 18:33 | 38.40982 | -120.21878 | 10591 ft | 341 kts | 258° |
| 2026-05-05 18:33 | 38.40409 | -120.24712 | 10558 ft | 319 kts | 258° |
| 2026-05-05 18:33 | 38.39874 | -120.27373 | 10385 ft | 303 kts | 259° |
| 2026-05-05 18:33 | 38.39351 | -120.29970 | 9930 ft | 302 kts | 259° |
| 2026-05-05 18:34 | 38.38832 | -120.32538 | 9499 ft | 297 kts | 258° |
| 2026-05-05 18:34 | 38.38314 | -120.35072 | 9093 ft | 293 kts | 258° |
| 2026-05-05 18:34 | 38.37805 | -120.37571 | 8726 ft | 288 kts | 258° |
| 2026-05-05 18:34 | 38.37321 | -120.39960 | 8793 ft | 272 kts | 258° |
| 2026-05-05 18:35 | 38.36840 | -120.42313 | 8797 ft | 279 kts | 259° |
| 2026-05-05 18:35 | 38.36353 | -120.44739 | 8777 ft | 293 kts | 259° |
| 2026-05-05 18:35 | 38.35838 | -120.47253 | 8769 ft | 291 kts | 258° |
| 2026-05-05 18:35 | 38.35321 | -120.49749 | 8752 ft | 291 kts | 258° |
| 2026-05-05 18:36 | 38.34814 | -120.52231 | 8752 ft | 286 kts | 259° |
| 2026-05-05 18:36 | 38.34315 | -120.54675 | 8271 ft | 286 kts | 258° |
| 2026-05-05 18:36 | 38.33816 | -120.57106 | 7919 ft | 281 kts | 258° |
| 2026-05-05 18:36 | 38.33323 | -120.59499 | 7512 ft | 277 kts | 258° |
| 2026-05-05 18:37 | 38.32838 | -120.61859 | 7106 ft | 274 kts | 258° |
| 2026-05-05 18:37 | 38.32359 | -120.64188 | 6729 ft | 270 kts | 258° |
| 2026-05-05 18:37 | 38.31886 | -120.66483 | 6346 ft | 266 kts | 257° |
| 2026-05-05 18:37 | 38.31418 | -120.68752 | 6019 ft | 261 kts | 257° |
| 2026-05-05 18:38 | 38.30968 | -120.70927 | 6009 ft | 251 kts | 257° |
| 2026-05-05 18:38 | 38.30522 | -120.73086 | 6006 ft | 256 kts | 257° |
| 2026-05-05 18:38 | 38.30070 | -120.75284 | 6013 ft | 263 kts | 257° |
| 2026-05-05 18:38 | 38.29599 | -120.77557 | 6020 ft | 267 kts | 257° |
| 2026-05-05 18:39 | 38.29122 | -120.79844 | 6015 ft | 266 kts | 257° |
| 2026-05-05 18:39 | 38.28650 | -120.82116 | 6012 ft | 264 kts | 257° |
| 2026-05-05 18:39 | 38.28189 | -120.84335 | 6005 ft | 256 kts | 257° |
| 2026-05-05 18:39 | 38.27732 | -120.86534 | 6003 ft | 258 kts | 257° |
| 2026-05-05 18:40 | 38.27270 | -120.88762 | 6005 ft | 263 kts | 257° |
| 2026-05-05 18:40 | 38.26799 | -120.91018 | 5996 ft | 260 kts | 257° |
| 2026-05-05 18:40 | 38.26336 | -120.93232 | 5418 ft | 260 kts | 257° |
| 2026-05-05 18:40 | 38.25871 | -120.95458 | 5020 ft | 256 kts | 256° |
| 2026-05-05 18:41 | 38.25423 | -120.97586 | 5001 ft | 246 kts | 257° |
| 2026-05-05 18:41 | 38.24982 | -120.99713 | 4992 ft | 252 kts | 257° |
| 2026-05-05 18:41 | 38.24527 | -121.01897 | 4999 ft | 258 kts | 256° |
| 2026-05-05 18:41 | 38.24062 | -121.04105 | 5009 ft | 262 kts | 256° |
| 2026-05-05 18:42 | 38.23588 | -121.06358 | 5017 ft | 261 kts | 256° |
| 2026-05-05 18:42 | 38.23118 | -121.08588 | 4999 ft | 260 kts | 256° |
| 2026-05-05 18:42 | 38.22654 | -121.10792 | 4992 ft | 256 kts | 256° |
| 2026-05-05 18:42 | 38.22199 | -121.12979 | 4994 ft | 256 kts | 257° |
| 2026-05-05 18:43 | 38.21733 | -121.15166 | 4988 ft | 257 kts | 256° |
| 2026-05-05 18:43 | 38.21267 | -121.17363 | 4989 ft | 257 kts | 257° |
| 2026-05-05 18:43 | 38.20804 | -121.19567 | 4988 ft | 259 kts | 257° |
| 2026-05-05 18:43 | 38.20337 | -121.21781 | 4989 ft | 260 kts | 256° |
| 2026-05-05 18:44 | 38.19872 | -121.23974 | 4987 ft | 260 kts | 256° |
| 2026-05-05 18:44 | 38.19402 | -121.26192 | 4987 ft | 260 kts | 257° |
| 2026-05-05 18:44 | 38.18931 | -121.28412 | 4988 ft | 260 kts | 257° |
| 2026-05-05 18:44 | 38.18455 | -121.30653 | 4987 ft | 259 kts | 257° |
| 2026-05-05 18:45 | 38.17991 | -121.32837 | 4990 ft | 259 kts | 257° |
| 2026-05-05 18:45 | 38.17522 | -121.35045 | 4989 ft | 259 kts | 257° |
| 2026-05-05 18:45 | 38.17051 | -121.37254 | 4985 ft | 258 kts | 257° |
| 2026-05-05 18:45 | 38.16580 | -121.39463 | 4988 ft | 258 kts | 257° |
| 2026-05-05 18:46 | 38.16110 | -121.41666 | 4988 ft | 258 kts | 257° |
| 2026-05-05 18:46 | 38.15640 | -121.43869 | 4986 ft | 258 kts | 257° |
| 2026-05-05 18:46 | 38.15168 | -121.46073 | 4989 ft | 259 kts | 257° |
| 2026-05-05 18:46 | 38.14702 | -121.48253 | 4986 ft | 259 kts | 257° |
| 2026-05-05 18:47 | 38.14228 | -121.50466 | 4985 ft | 260 kts | 256° |
| 2026-05-05 18:47 | 38.13751 | -121.52687 | 4981 ft | 260 kts | 257° |
| 2026-05-05 18:47 | 38.13274 | -121.54912 | 4981 ft | 261 kts | 257° |
| 2026-05-05 18:47 | 38.12796 | -121.57135 | 4996 ft | 261 kts | 257° |
| 2026-05-05 18:48 | 38.12318 | -121.59357 | 4999 ft | 262 kts | 257° |
| 2026-05-05 18:48 | 38.11837 | -121.61588 | 4997 ft | 261 kts | 257° |
| 2026-05-05 18:48 | 38.11358 | -121.63812 | 4999 ft | 261 kts | 257° |
| 2026-05-05 18:48 | 38.10879 | -121.66033 | 4999 ft | 261 kts | 257° |
| 2026-05-05 18:49 | 38.10399 | -121.68259 | 4992 ft | 261 kts | 257° |
| 2026-05-05 18:49 | 38.09918 | -121.70481 | 4999 ft | 261 kts | 257° |
| 2026-05-05 18:49 | 38.09437 | -121.72702 | 4999 ft | 261 kts | 257° |
| 2026-05-05 18:49 | 38.08958 | -121.74914 | 4984 ft | 257 kts | 257° |
| 2026-05-05 18:50 | 38.08484 | -121.77100 | 4507 ft | 258 kts | 256° |
| 2026-05-05 18:50 | 38.08010 | -121.79288 | 4114 ft | 255 kts | 256° |
| 2026-05-05 18:50 | 38.07539 | -121.81451 | 3685 ft | 254 kts | 256° |
| 2026-05-05 18:50 | 38.07070 | -121.83607 | 3284 ft | 252 kts | 256° |
| 2026-05-05 18:51 | 38.06610 | -121.85721 | 2917 ft | 250 kts | 256° |
| 2026-05-05 18:51 | 38.06157 | -121.87796 | 2909 ft | 239 kts | 256° |
| 2026-05-05 18:51 | 38.05712 | -121.89840 | 2907 ft | 244 kts | 256° |
| 2026-05-05 18:51 | 38.05254 | -121.91943 | 2916 ft | 250 kts | 256° |
| 2026-05-05 18:52 | 38.04786 | -121.94087 | 2910 ft | 253 kts | 256° |
| 2026-05-05 18:52 | 38.04313 | -121.96241 | 2910 ft | 252 kts | 256° |
| 2026-05-05 18:52 | 38.03847 | -121.98370 | 2916 ft | 251 kts | 256° |
| 2026-05-05 18:52 | 38.03380 | -122.00501 | 2915 ft | 250 kts | 256° |
| 2026-05-05 18:53 | 38.02915 | -122.02622 | 2909 ft | 249 kts | 256° |
| 2026-05-05 18:53 | 38.02452 | -122.04734 | 2905 ft | 249 kts | 256° |
| 2026-05-05 18:53 | 38.01987 | -122.06852 | 2907 ft | 250 kts | 256° |
| 2026-05-05 18:53 | 38.01520 | -122.08972 | 2899 ft | 250 kts | 256° |
| 2026-05-05 18:54 | 38.01051 | -122.11100 | 2896 ft | 251 kts | 256° |
| 2026-05-05 18:54 | 38.00587 | -122.13210 | 2899 ft | 252 kts | 256° |
| 2026-05-05 18:54 | 38.00116 | -122.15347 | 2900 ft | 251 kts | 256° |
| 2026-05-05 18:54 | 37.99644 | -122.17484 | 2902 ft | 252 kts | 256° |
| 2026-05-05 18:55 | 37.99312 | -122.19658 | 2888 ft | 251 kts | 269° |
| 2026-05-05 18:55 | 37.99489 | -122.21838 | 2888 ft | 248 kts | 285° |
| 2026-05-05 18:55 | 37.99969 | -122.23938 | 2893 ft | 247 kts | 288° |
| 2026-05-05 18:55 | 38.00438 | -122.26024 | 2892 ft | 243 kts | 287° |
| 2026-05-05 18:56 | 38.00883 | -122.28031 | 2889 ft | 228 kts | 287° |
| 2026-05-05 18:56 | 38.01297 | -122.29880 | 2881 ft | 208 kts | 288° |
| 2026-05-05 18:56 | 38.01687 | -122.31614 | 2582 ft | 205 kts | 288° |
| 2026-05-05 18:56 | 38.02075 | -122.33343 | 2262 ft | 201 kts | 287° |
| 2026-05-05 18:57 | 38.02457 | -122.35038 | 1934 ft | 199 kts | 287° |
| 2026-05-05 18:57 | 38.02827 | -122.36702 | 1794 ft | 190 kts | 286° |
| 2026-05-05 18:57 | 38.03391 | -122.38160 | 1780 ft | 187 kts | 316° |
| 2026-05-05 18:57 | 38.04603 | -122.38831 | 1799 ft | 198 kts | 355° |
| 2026-05-05 18:58 | 38.05884 | -122.38315 | 1815 ft | 197 kts | 37° |
| 2026-05-05 18:58 | 38.06611 | -122.36962 | 1807 ft | 179 kts | 63° |
| 2026-05-05 18:58 | 38.07106 | -122.35580 | 1776 ft | 165 kts | 57° |
| 2026-05-05 18:58 | 38.07938 | -122.34698 | 1798 ft | 155 kts | 20° |
| 2026-05-05 18:59 | 38.08967 | -122.34216 | 1810 ft | 161 kts | 18° |
| 2026-05-05 18:59 | 38.10017 | -122.33695 | 1806 ft | 159 kts | 19° |
| 2026-05-05 18:59 | 38.11042 | -122.33200 | 1789 ft | 157 kts | 18° |
| 2026-05-05 18:59 | 38.12053 | -122.32719 | 1404 ft | 156 kts | 17° |
| 2026-05-05 19:00 | 38.13063 | -122.32235 | 1096 ft | 144 kts | 17° |
| 2026-05-05 19:00 | 38.13977 | -122.31798 | 1188 ft | 143 kts | 17° |
| 2026-05-05 19:00 | 38.14966 | -122.31327 | 1364 ft | 159 kts | 18° |
| 2026-05-05 19:00 | 38.15991 | -122.30824 | 1524 ft | 160 kts | 20° |
| 2026-05-05 19:01 | 38.17021 | -122.30273 | 1634 ft | 164 kts | 21° |
| 2026-05-05 19:01 | 38.18102 | -122.29753 | 1545 ft | 166 kts | 19° |
| 2026-05-05 19:01 | 38.19077 | -122.29301 | 1240 ft | 136 kts | 15° |
| 2026-05-05 19:01 | 38.19960 | -122.28877 | 616 ft | 134 kts | 13° |
| 2026-05-05 19:02 | 38.20820 | -122.28505 | 49 ft | 127 kts | 17° |
| 2026-05-05 19:02 | 38.21533 | -122.28187 | 17 ft | 91 kts | 23° |
| 2026-05-05 19:02 | 38.22035 | -122.27939 | 18 ft | 60 kts | 21° |
| 2026-05-05 19:02 | 38.22295 | -122.27803 | 25 ft | 21 kts | 46° |
| 2026-05-05 19:03 | 38.22259 | -122.27656 | 22 ft | 24 kts | 147° |
| 2026-05-05 19:03 | 38.22123 | -122.27634 | 20 ft | 22 kts | 202° |
| 2026-05-05 19:03 | 38.22004 | -122.27647 | 15 ft | 19 kts | 139° |
| 2026-05-05 19:03 | 38.21912 | -122.27528 | 14 ft | 11 kts | 134° |
| 2026-05-05 19:04 | 38.21833 | -122.27474 | 14 ft | 15 kts | 166° |
| 2026-05-05 19:04 | 38.21731 | -122.27418 | 14 ft | 17 kts | 144° |
| 2026-05-05 19:04 | 38.21668 | -122.27353 | 16 ft | 7 kts | 179° |
| 2026-05-05 19:04 | 38.21646 | -122.27371 | 16 ft | 0 kts | 230° |